Juan Gualberto Gomez Airport

Airport
ICAO code: 
MUVR
IATA Code: 
VRA
Summary
ICAO Region: 
CARSAM
Territory: 
Location: 
Matanzas, Matanzas
Serving: 
Varadero
Elevation: 
210 ft
Coordinates: 
Aerial View: 
23° 2' 4" N, 81° 26' 7" W
Airport WX: 
Tropical Revolving Storm
Metar
Observation
MUVR 301950Z 05008KT 9000 SCT020 25/18 Q1018
Station
Varadero, Matanzas
Date/Time
2021-11-30 19:50:00
Wind direction
50°
Wind speed
08 kts
Lowest cloud amount
scattered clouds
Temperature
25°C
Dew point
18°C
Humidity
65%
QNH
1018 hPa
Weather condition
n/a

Juan Gualberto Gómez Airport is an international airport serving Varadero, Cuba and the province of Matanzas. The airport is located closer to the town of Matanzas than to Varadero. The closest airport to Varadero is Santa Marta Airport. Juan Gualberto Gómez Airport is the second busiest airport in Cuba after José Martí International Airport in Havana.

Climatology

Tropical Savanna climate (Köppen climate classification Aw)

Runways

Designator Length Width Surface Rops
6/24 3502 45 ASP Yes/Yes
Airport map: 
Aerial View: 

Accidents and Serious Incidents at or in the vicinity of MUVR

SKYbrary Partners:

Safety knowledge contributed by: